Time,TemperatureF,DewpointF,PressureIn,WindDirection,WindDirectionDegrees,WindSpeedMPH,WindSpeedGustMPH,Humidity,HourlyPrecipIn,Conditions,Clouds,dailyrainin,SoftwareType,DateUTC
2013-03-28 00:08:00,34.8,26.0,29.94,South,189,0.0,-999.0,71,-99.99,,,0.00,weatherlink.com 1.10,2013-03-28 04:08:00,
2013-03-28 00:23:00,34.4,26.0,29.94,South,189,0.0,-999.0,72,-99.99,,,0.00,weatherlink.com 1.10,2013-03-28 04:23:00,
2013-03-28 00:38:00,34.4,26.0,29.94,South,189,0.0,-999.0,72,-99.99,,,0.00,weatherlink.com 1.10,2013-03-28 04:38:00,
2013-03-28 00:53:00,34.2,26.0,29.94,South,189,0.0,-999.0,73,-99.99,,,0.00,weatherlink.com 1.10,2013-03-28 04:53:00,
2013-03-28 01:08:00,33.7,27.0,29.94,South,189,0.0,-999.0,75,-99.99,,,0.00,weatherlink.com 1.10,2013-03-28 05:08:00,
2013-03-28 01:23:00,33.2,26.0,29.94,South,173,0.0,-999.0,76,-99.99,,,0.00,weatherlink.com 1.10,2013-03-28 05:23:00,
2013-03-28 01:38:00,32.5,26.0,29.94,South,175,0.0,-999.0,77,-99.99,,,0.00,weatherlink.com 1.10,2013-03-28 05:38:00,
2013-03-28 01:53:00,32.0,26.0,29.93,South,188,0.0,-999.0,79,-99.99,,,0.00,weatherlink.com 1.10,2013-03-28 05:53:00,
2013-03-28 02:08:00,31.6,26.0,29.93,South,188,0.0,-999.0,79,-99.99,,,0.00,weatherlink.com 1.10,2013-03-28 06:08:00,
2013-03-28 02:23:00,31.3,26.0,29.93,South,187,0.0,-999.0,80,-99.99,,,0.00,weatherlink.com 1.10,2013-03-28 06:23:00,
2013-03-28 02:38:00,30.9,26.0,29.93,South,187,0.0,-999.0,81,-99.99,,,0.00,weatherlink.com 1.10,2013-03-28 06:38:00,
2013-03-28 02:53:00,30.7,26.0,29.93,South,189,0.0,-999.0,83,-99.99,,,0.00,weatherlink.com 1.10,2013-03-28 06:53:00,
2013-03-28 03:08:00,30.9,26.0,29.93,South,189,0.0,-999.0,83,-99.99,,,0.00,weatherlink.com 1.10,2013-03-28 07:08:00,
2013-03-28 03:23:00,30.8,27.0,29.93,South,189,0.0,-999.0,84,-99.99,,,0.00,weatherlink.com 1.10,2013-03-28 07:23:00,
2013-03-28 03:38:00,30.7,26.0,29.93,South,189,0.0,-999.0,83,-99.99,,,0.00,weatherlink.com 1.10,2013-03-28 07:38:00,
2013-03-28 03:53:00,30.3,26.0,29.94,South,189,0.0,-999.0,84,-99.99,,,0.00,weatherlink.com 1.10,2013-03-28 07:53:00,
2013-03-28 04:08:00,30.2,27.0,29.93,South,189,0.0,-999.0,86,-99.99,,,0.00,weatherlink.com 1.10,2013-03-28 08:08:00,
2013-03-28 04:23:00,30.1,27.0,29.94,South,189,0.0,-999.0,87,-99.99,,,0.00,weatherlink.com 1.10,2013-03-28 08:23:00,
2013-03-28 04:38:00,30.5,27.0,29.93,South,189,0.0,-999.0,87,-99.99,,,0.00,weatherlink.com 1.10,2013-03-28 08:38:00,
2013-03-28 04:53:00,30.4,27.0,29.94,South,189,0.0,-999.0,87,-99.99,,,0.00,weatherlink.com 1.10,2013-03-28 08:53:00,
2013-03-28 05:08:00,30.8,27.0,29.94,South,189,0.0,-999.0,87,-99.99,,,0.00,weatherlink.com 1.10,2013-03-28 09:08:00,
2013-03-28 05:23:00,31.2,28.0,29.94,South,189,0.0,-999.0,86,-99.99,,,0.00,weatherlink.com 1.10,2013-03-28 09:23:00,
2013-03-28 05:38:00,30.9,27.0,29.94,South,189,0.0,-999.0,86,-99.99,,,0.00,weatherlink.com 1.10,2013-03-28 09:38:00,
2013-03-28 05:53:00,31.4,27.0,29.94,South,189,0.0,-999.0,85,-99.99,,,0.00,weatherlink.com 1.10,2013-03-28 09:53:00,
2013-03-28 06:08:00,31.9,28.0,29.94,South,189,0.0,-999.0,84,-99.99,,,0.00,weatherlink.com 1.10,2013-03-28 10:08:00,
2013-03-28 06:23:00,32.8,28.0,29.95,South,189,0.0,-999.0,82,-99.99,,,0.00,weatherlink.com 1.10,2013-03-28 10:23:00,
2013-03-28 06:38:00,33.4,28.0,29.95,South,189,0.0,-999.0,81,-99.99,,,0.00,weatherlink.com 1.10,2013-03-28 10:38:00,
2013-03-28 06:53:00,33.8,29.0,29.95,South,189,0.0,-999.0,81,-99.99,,,0.00,weatherlink.com 1.10,2013-03-28 10:53:00,
2013-03-28 07:08:00,33.6,28.0,29.96,South,189,1.0,-999.0,81,-99.99,,,0.00,weatherlink.com 1.10,2013-03-28 11:08:00,
2013-03-28 07:23:00,33.4,28.0,29.96,South,189,0.0,-999.0,81,-99.99,,,0.00,weatherlink.com 1.10,2013-03-28 11:23:00,
2013-03-28 07:38:00,33.3,28.0,29.96,South,189,0.0,-999.0,82,-99.99,,,0.00,weatherlink.com 1.10,2013-03-28 11:38:00,
2013-03-28 07:53:00,33.2,29.0,29.97,South,189,0.0,-999.0,83,-99.99,,,0.00,weatherlink.com 1.10,2013-03-28 11:53:00,
2013-03-28 08:08:00,33.5,29.0,29.97,South,189,0.0,-999.0,82,-99.99,,,0.00,weatherlink.com 1.10,2013-03-28 12:08:00,
2013-03-28 08:23:00,34.0,29.0,29.97,South,189,0.0,-999.0,81,-99.99,,,0.00,weatherlink.com 1.10,2013-03-28 12:23:00,
2013-03-28 08:38:00,35.1,30.0,29.98,South,188,0.0,-999.0,81,-99.99,,,0.00,weatherlink.com 1.10,2013-03-28 12:38:00,
2013-03-28 08:55:00,36.1,30.0,29.98,SW,215,0.0,-999.0,78,-99.99,,,0.00,weatherlink.com 1.10,2013-03-28 12:55:00,
2013-03-28 09:08:00,37.9,30.0,29.98,WNW,284,1.0,-999.0,74,-99.99,,,0.00,weatherlink.com 1.10,2013-03-28 13:08:00,
2013-03-28 09:23:00,38.8,31.0,29.98,WNW,282,7.0,-999.0,73,-99.99,,,0.00,weatherlink.com 1.10,2013-03-28 13:23:00,
2013-03-28 09:38:00,39.3,31.0,29.98,WNW,284,0.0,-999.0,73,-99.99,,,0.00,weatherlink.com 1.10,2013-03-28 13:38:00,
2013-03-28 09:53:00,40.1,32.0,29.98,WNW,300,2.0,-999.0,72,-99.99,,,0.00,weatherlink.com 1.10,2013-03-28 13:53:00,
2013-03-28 10:08:00,39.8,32.0,29.98,SW,234,0.0,-999.0,75,-99.99,,,0.00,weatherlink.com 1.10,2013-03-28 14:08:00,
2013-03-28 10:23:00,39.9,33.0,29.99,West,279,0.0,-999.0,76,-99.99,,,0.00,weatherlink.com 1.10,2013-03-28 14:23:00,
2013-03-28 10:38:00,40.1,33.0,29.99,NNE,12,5.0,-999.0,76,-99.99,,,0.00,weatherlink.com 1.10,2013-03-28 14:38:00,
2013-03-28 10:53:00,40.4,33.0,29.99,South,185,6.0,-999.0,75,-99.99,,,0.00,weatherlink.com 1.10,2013-03-28 14:53:00,
2013-03-28 11:08:00,40.6,33.0,29.99,SSW,197,5.0,-999.0,75,-99.99,,,0.00,weatherlink.com 1.10,2013-03-28 15:08:00,
2013-03-28 11:23:00,40.4,34.0,30.00,WSW,256,5.0,-999.0,77,-99.99,,,0.00,weatherlink.com 1.10,2013-03-28 15:23:00,
2013-03-28 11:38:00,41.2,34.0,29.99,West,279,3.0,-999.0,76,-99.99,,,0.00,weatherlink.com 1.10,2013-03-28 15:38:00,
2013-03-28 11:53:00,41.0,34.0,30.00,WNW,284,6.0,-999.0,77,-99.99,,,0.00,weatherlink.com 1.10,2013-03-28 15:53:00,
2013-03-28 12:08:00,41.6,35.0,30.00,WNW,293,0.0,-999.0,78,-99.99,,,0.00,weatherlink.com 1.10,2013-03-28 16:08:00,
2013-03-28 12:23:00,42.0,35.0,30.00,SW,215,4.0,-999.0,75,-99.99,,,0.00,weatherlink.com 1.10,2013-03-28 16:23:00,
2013-03-28 12:38:00,42.3,34.0,30.00,WSW,238,2.0,-999.0,73,-99.99,,,0.00,weatherlink.com 1.10,2013-03-28 16:38:00,
2013-03-28 12:53:00,43.5,35.0,29.99,South,186,5.0,-999.0,71,-99.99,,,0.00,weatherlink.com 1.10,2013-03-28 16:53:00,
2013-03-28 13:08:00,43.0,34.0,29.99,West,276,6.0,-999.0,71,-99.99,,,0.00,weatherlink.com 1.10,2013-03-28 17:08:00,
2013-03-28 13:23:00,43.5,35.0,29.99,SSW,192,4.0,-999.0,71,-99.99,,,0.00,weatherlink.com 1.10,2013-03-28 17:23:00,
2013-03-28 13:38:00,43.7,35.0,29.99,NW,321,2.0,-999.0,72,-99.99,,,0.00,weatherlink.com 1.10,2013-03-28 17:38:00,
2013-03-28 13:53:00,43.6,35.0,29.99,WNW,300,3.0,-999.0,71,-99.99,,,0.00,weatherlink.com 1.10,2013-03-28 17:53:00,
2013-03-28 14:08:00,43.9,34.0,29.99,SSW,211,0.0,-999.0,68,-99.99,,,0.00,weatherlink.com 1.10,2013-03-28 18:08:00,
2013-03-28 14:23:00,43.9,34.0,29.99,SW,232,2.0,-999.0,69,-99.99,,,0.00,weatherlink.com 1.10,2013-03-28 18:23:00,
2013-03-28 14:38:00,44.3,34.0,29.99,WSW,242,1.0,-999.0,66,-99.99,,,0.00,weatherlink.com 1.10,2013-03-28 18:38:00,
2013-03-28 14:53:00,45.8,33.0,29.99,West,281,1.0,-999.0,61,-99.99,,,0.00,weatherlink.com 1.10,2013-03-28 18:53:00,
2013-03-28 15:08:00,46.0,33.0,29.99,West,274,1.0,-999.0,62,-99.99,,,0.00,weatherlink.com 1.10,2013-03-28 19:08:00,
2013-03-28 15:23:00,45.8,33.0,29.99,West,259,6.0,-999.0,62,-99.99,,,0.00,weatherlink.com 1.10,2013-03-28 19:23:00,
2013-03-28 15:38:00,45.2,33.0,29.99,West,271,0.0,-999.0,63,-99.99,,,0.00,weatherlink.com 1.10,2013-03-28 19:38:00,
2013-03-28 15:53:00,45.1,33.0,29.99,West,280,0.0,-999.0,62,-99.99,,,0.00,weatherlink.com 1.10,2013-03-28 19:53:00,
2013-03-28 16:08:00,45.1,33.0,29.99,West,277,0.0,-999.0,63,-99.99,,,0.00,weatherlink.com 1.10,2013-03-28 20:08:00,
2013-03-28 16:23:00,45.4,32.0,29.99,South,173,4.0,-999.0,61,-99.99,,,0.00,weatherlink.com 1.10,2013-03-28 20:23:00,
2013-03-28 16:38:00,45.4,33.0,29.99,WNW,300,4.0,-999.0,62,-99.99,,,0.00,weatherlink.com 1.10,2013-03-28 20:38:00,
2013-03-28 16:53:00,45.2,33.0,29.99,West,269,2.0,-999.0,62,-99.99,,,0.00,weatherlink.com 1.10,2013-03-28 20:53:00,
2013-03-28 17:08:00,45.3,33.0,29.99,WSW,258,1.0,-999.0,62,-99.99,,,0.00,weatherlink.com 1.10,2013-03-28 21:08:00,
2013-03-28 17:23:00,45.8,33.0,30.00,South,188,3.0,-999.0,61,-99.99,,,0.00,weatherlink.com 1.10,2013-03-28 21:23:00,
2013-03-28 17:38:00,45.6,33.0,30.00,North,360,3.0,-999.0,61,-99.99,,,0.00,weatherlink.com 1.10,2013-03-28 21:38:00,
2013-03-28 17:53:00,45.6,33.0,30.00,WNW,286,0.0,-999.0,62,-99.99,,,0.00,weatherlink.com 1.10,2013-03-28 21:53:00,
2013-03-28 18:08:00,45.4,33.0,30.00,WNW,285,4.0,-999.0,62,-99.99,,,0.00,weatherlink.com 1.10,2013-03-28 22:08:00,
2013-03-28 18:23:00,45.1,33.0,30.01,NNE,22,1.0,-999.0,62,-99.99,,,0.00,weatherlink.com 1.10,2013-03-28 22:23:00,
2013-03-28 18:38:00,44.8,33.0,30.01,WSW,238,2.0,-999.0,63,-99.99,,,0.00,weatherlink.com 1.10,2013-03-28 22:38:00,
2013-03-28 18:53:00,44.6,33.0,30.02,SW,236,2.0,-999.0,64,-99.99,,,0.00,weatherlink.com 1.10,2013-03-28 22:53:00,
2013-03-28 19:08:00,44.2,33.0,30.02,WNW,298,0.0,-999.0,65,-99.99,,,0.00,weatherlink.com 1.10,2013-03-28 23:08:00,
2013-03-28 19:23:00,43.6,33.0,30.02,NNE,13,0.0,-999.0,66,-99.99,,,0.00,weatherlink.com 1.10,2013-03-28 23:23:00,
2013-03-28 19:38:00,43.3,33.0,30.03,WSW,244,0.0,-999.0,67,-99.99,,,0.00,weatherlink.com 1.10,2013-03-28 23:38:00,
2013-03-28 19:53:00,43.0,33.0,30.04,South,172,0.0,-999.0,68,-99.99,,,0.00,weatherlink.com 1.10,2013-03-28 23:53:00,
2013-03-28 20:08:00,43.0,33.0,30.05,SW,236,0.0,-999.0,68,-99.99,,,0.00,weatherlink.com 1.10,2013-03-29 00:08:00,
2013-03-28 20:23:00,42.8,33.0,30.05,SW,235,0.0,-999.0,68,-99.99,,,0.00,weatherlink.com 1.10,2013-03-29 00:23:00,
2013-03-28 20:38:00,42.7,33.0,30.06,SW,229,0.0,-999.0,68,-99.99,,,0.00,weatherlink.com 1.10,2013-03-29 00:38:00,
2013-03-28 20:53:00,42.5,33.0,30.05,SSW,204,1.0,-999.0,69,-99.99,,,0.00,weatherlink.com 1.10,2013-03-29 00:53:00,
2013-03-28 21:08:00,42.3,33.0,30.05,SSW,204,1.0,-999.0,69,-99.99,,,0.00,weatherlink.com 1.10,2013-03-29 01:08:00,
2013-03-28 21:23:00,42.2,33.0,30.06,SSW,201,0.0,-999.0,69,-99.99,,,0.00,weatherlink.com 1.10,2013-03-29 01:23:00,
2013-03-28 21:38:00,42.1,33.0,30.06,SSW,200,0.0,-999.0,69,-99.99,,,0.00,weatherlink.com 1.10,2013-03-29 01:38:00,
2013-03-28 21:53:00,41.8,32.0,30.07,SSW,200,0.0,-999.0,69,-99.99,,,0.00,weatherlink.com 1.10,2013-03-29 01:53:00,
2013-03-28 22:08:00,41.5,33.0,30.07,SSW,199,0.0,-999.0,71,-99.99,,,0.00,weatherlink.com 1.10,2013-03-29 02:08:00,
2013-03-28 22:23:00,41.0,33.0,30.07,South,188,0.0,-999.0,72,-99.99,,,0.00,weatherlink.com 1.10,2013-03-29 02:23:00,
2013-03-28 22:38:00,40.7,33.0,30.07,SSW,200,0.0,-999.0,73,-99.99,,,0.00,weatherlink.com 1.10,2013-03-29 02:38:00,
2013-03-28 22:53:00,40.5,32.0,30.08,SSW,199,0.0,-999.0,73,-99.99,,,0.00,weatherlink.com 1.10,2013-03-29 02:53:00,
2013-03-28 23:08:00,40.3,33.0,30.08,SW,224,0.0,-999.0,74,-99.99,,,0.00,weatherlink.com 1.10,2013-03-29 03:08:00,
2013-03-28 23:23:00,40.0,33.0,30.08,SW,225,0.0,-999.0,76,-99.99,,,0.00,weatherlink.com 1.10,2013-03-29 03:23:00,
2013-03-28 23:38:00,39.6,33.0,30.08,SW,225,0.0,-999.0,76,-99.99,,,0.00,weatherlink.com 1.10,2013-03-29 03:38:00,
2013-03-28 23:53:00,39.5,33.0,30.08,SW,225,0.0,-999.0,77,-99.99,,,0.00,weatherlink.com 1.10,2013-03-29 03:53:00,